Time,TemperatureF,DewpointF,PressureIn,WindDirection,WindDirectionDegrees,WindSpeedMPH,WindSpeedGustMPH,Humidity,HourlyPrecipIn,Conditions,Clouds,dailyrainin,SoftwareType,DateUTC
2013-02-05 00:03:00,30.2,23.6,29.97,SE,135,0.0,0.0,76,0.00,,---,0.00,VWS V14.01,2013-02-05 06:03:00,
2013-02-05 00:09:00,30.2,23.2,29.97,SSE,158,0.9,1.1,75,0.00,,---,0.00,VWS V14.01,2013-02-05 06:09:00,
2013-02-05 00:14:00,30.6,23.9,30.00,SSE,158,0.0,0.0,76,0.00,,---,0.00,VWS V14.01,2013-02-05 06:14:00,
2013-02-05 00:20:00,30.2,23.2,30.00,SSE,158,0.0,0.0,75,0.00,,---,0.00,VWS V14.01,2013-02-05 06:20:00,
2013-02-05 00:25:00,30.2,23.2,30.00,SSE,158,0.0,0.0,75,0.00,,---,0.00,VWS V14.01,2013-02-05 06:25:00,
2013-02-05 00:31:00,30.2,23.6,29.97,SSE,158,0.0,0.0,76,0.00,,---,0.00,VWS V14.01,2013-02-05 06:31:00,
2013-02-05 00:37:00,30.2,23.2,29.97,SSE,158,0.0,0.0,75,0.00,,---,0.00,VWS V14.01,2013-02-05 06:37:00,
2013-02-05 00:42:00,30.2,23.6,29.94,SSE,158,0.0,0.0,76,0.00,,---,0.00,VWS V14.01,2013-02-05 06:42:00,
2013-02-05 00:48:00,30.4,24.0,29.94,SSE,158,0.0,2.0,77,0.00,,---,0.00,VWS V14.01,2013-02-05 06:48:00,
2013-02-05 00:53:00,31.1,25.4,29.94,South,180,4.3,4.3,79,0.00,,---,0.00,VWS V14.01,2013-02-05 06:53:00,
2013-02-05 00:58:00,31.6,25.6,29.97,South,180,1.3,3.4,78,0.00,,---,0.00,VWS V14.01,2013-02-05 06:58:00,
2013-02-05 01:03:00,31.6,25.0,29.97,SSE,158,1.1,1.1,76,0.00,,---,0.00,VWS V14.01,2013-02-05 07:03:00,
2013-02-05 01:09:00,31.5,24.5,29.97,South,180,0.0,1.1,75,0.00,,---,0.00,VWS V14.01,2013-02-05 07:09:00,
2013-02-05 01:14:00,31.3,24.0,29.97,SSE,158,0.0,1.1,74,0.00,,---,0.00,VWS V14.01,2013-02-05 07:14:00,
2013-02-05 01:19:00,31.5,24.5,29.97,SSW,202,1.1,1.1,75,0.00,,---,0.00,VWS V14.01,2013-02-05 07:19:00,
2013-02-05 01:24:00,31.6,25.0,29.97,South,180,0.9,2.9,76,0.00,,---,0.00,VWS V14.01,2013-02-05 07:24:00,
2013-02-05 01:30:00,31.3,24.0,29.94,SSE,158,0.0,1.6,74,0.00,,---,0.00,VWS V14.01,2013-02-05 07:30:00,
2013-02-05 01:35:00,30.9,23.3,29.94,SSE,158,1.1,1.1,73,0.00,,---,0.00,VWS V14.01,2013-02-05 07:35:00,
2013-02-05 01:41:00,30.9,23.9,29.94,SSW,202,0.9,1.6,75,0.00,,---,0.00,VWS V14.01,2013-02-05 07:41:00,
2013-02-05 01:47:00,30.7,23.8,29.97,South,180,0.9,1.3,75,0.00,,---,0.00,VWS V14.01,2013-02-05 07:47:00,
2013-02-05 01:52:00,30.9,24.6,29.97,South,180,1.6,2.5,77,0.00,,---,0.00,VWS V14.01,2013-02-05 07:52:00,
2013-02-05 01:58:00,31.1,25.0,29.97,SSW,202,0.0,1.3,78,0.00,,---,0.00,VWS V14.01,2013-02-05 07:58:00,
2013-02-05 02:03:00,31.1,25.0,29.97,South,180,1.1,1.3,78,0.00,,---,0.00,VWS V14.01,2013-02-05 08:03:00,
2013-02-05 02:09:00,31.1,24.8,29.97,South,180,1.1,1.1,77,0.00,,---,0.00,VWS V14.01,2013-02-05 08:09:00,
2013-02-05 02:15:00,30.7,24.1,29.97,South,180,1.3,1.3,76,0.00,,---,0.00,VWS V14.01,2013-02-05 08:15:00,
2013-02-05 02:20:00,30.4,23.7,29.97,South,180,0.0,0.0,76,0.00,,---,0.00,VWS V14.01,2013-02-05 08:20:00,
2013-02-05 02:26:00,29.7,22.7,29.97,South,180,0.0,0.0,75,0.00,,---,0.00,VWS V14.01,2013-02-05 08:26:00,
2013-02-05 02:31:00,29.8,23.5,29.94,SSW,202,1.1,1.6,77,0.00,,---,0.00,VWS V14.01,2013-02-05 08:31:00,
2013-02-05 02:37:00,29.7,24.0,29.94,SSW,202,0.0,0.0,79,0.00,,---,0.00,VWS V14.01,2013-02-05 08:37:00,
2013-02-05 02:43:00,29.5,23.8,29.97,South,180,0.0,1.1,79,0.00,,---,0.00,VWS V14.01,2013-02-05 08:43:00,
2013-02-05 02:48:00,29.5,24.1,29.97,South,180,0.0,0.9,80,0.00,,---,0.00,VWS V14.01,2013-02-05 08:48:00,
2013-02-05 02:54:00,29.5,24.1,29.97,SSW,202,0.0,1.6,80,0.00,,---,0.00,VWS V14.01,2013-02-05 08:54:00,
2013-02-05 02:59:00,29.5,24.1,29.97,South,180,0.0,0.0,80,0.00,,---,0.00,VWS V14.01,2013-02-05 08:59:00,
2013-02-05 03:04:00,29.5,24.1,29.97,SSW,202,0.0,1.6,80,0.00,,---,0.00,VWS V14.01,2013-02-05 09:04:00,
2013-02-05 03:09:00,29.7,24.3,29.97,South,180,0.9,2.2,80,0.00,,---,0.00,VWS V14.01,2013-02-05 09:09:00,
2013-02-05 03:15:00,29.5,24.1,29.97,South,180,0.0,2.0,80,0.00,,---,0.00,VWS V14.01,2013-02-05 09:15:00,
2013-02-05 03:20:00,29.5,24.1,29.97,South,180,0.0,0.0,80,0.00,,---,0.00,VWS V14.01,2013-02-05 09:20:00,
2013-02-05 03:25:00,29.3,23.6,29.97,South,180,0.0,0.0,79,0.00,,---,0.00,VWS V14.01,2013-02-05 09:25:00,
2013-02-05 03:30:00,28.9,23.0,29.97,South,180,0.0,0.0,78,0.00,,---,0.00,VWS V14.01,2013-02-05 09:30:00,
2013-02-05 03:36:00,28.4,22.4,29.97,South,180,0.0,0.0,78,0.00,,---,0.00,VWS V14.01,2013-02-05 09:36:00,
2013-02-05 03:41:00,28.6,22.9,29.97,South,180,0.0,0.0,79,0.00,,---,0.00,VWS V14.01,2013-02-05 09:41:00,
2013-02-05 03:46:00,28.4,23.0,29.97,South,180,0.0,2.2,80,0.00,,---,0.00,VWS V14.01,2013-02-05 09:46:00,
2013-02-05 03:51:00,28.4,23.3,29.97,SSW,202,1.3,1.3,81,0.00,,---,0.00,VWS V14.01,2013-02-05 09:51:00,
2013-02-05 03:57:00,28.6,24.1,29.94,South,180,2.5,2.5,83,0.00,,---,0.00,VWS V14.01,2013-02-05 09:57:00,
2013-02-05 04:02:00,28.9,24.7,29.94,SSW,202,2.0,2.0,84,0.00,,---,0.00,VWS V14.01,2013-02-05 10:02:00,
2013-02-05 04:08:00,29.1,24.6,29.94,South,180,0.0,1.3,83,0.00,,---,0.00,VWS V14.01,2013-02-05 10:08:00,
2013-02-05 04:14:00,29.1,24.3,29.97,SSW,202,0.9,1.3,82,0.00,,---,0.00,VWS V14.01,2013-02-05 10:14:00,
2013-02-05 04:19:00,28.9,24.1,29.97,WSW,248,2.0,2.0,82,0.00,,---,0.00,VWS V14.01,2013-02-05 10:19:00,
2013-02-05 04:25:00,29.1,24.3,29.97,SSW,202,0.0,1.6,82,0.00,,---,0.00,VWS V14.01,2013-02-05 10:25:00,
2013-02-05 04:30:00,29.1,24.3,29.97,SSW,202,0.0,2.5,82,0.00,,---,0.00,VWS V14.01,2013-02-05 10:30:00,
2013-02-05 04:35:00,29.3,24.5,29.97,SSW,202,1.1,2.0,82,0.00,,---,0.00,VWS V14.01,2013-02-05 10:35:00,
2013-02-05 04:40:00,29.3,24.5,29.97,SSW,202,0.0,2.5,82,0.00,,---,0.00,VWS V14.01,2013-02-05 10:40:00,
2013-02-05 04:45:00,29.3,24.2,29.97,SW,225,3.4,3.4,81,0.00,,---,0.00,VWS V14.01,2013-02-05 10:45:00,
2013-02-05 04:50:00,29.1,23.7,29.97,SSW,202,0.9,1.3,80,0.00,,---,0.00,VWS V14.01,2013-02-05 10:50:00,
2013-02-05 04:56:00,29.1,24.0,29.97,SSW,202,2.2,2.2,81,0.00,,---,0.00,VWS V14.01,2013-02-05 10:56:00,
2013-02-05 05:01:00,34.9,24.0,29.97,SSW,202,0.0,1.1,64,0.00,,---,0.00,VWS V14.01,2013-02-05 11:01:00,
2013-02-05 05:07:00,34.9,24.0,29.97,SSW,202,2.0,2.0,64,0.00,,---,0.00,VWS V14.01,2013-02-05 11:07:00,
2013-02-05 05:12:00,28.6,23.2,29.97,SW,225,0.0,0.0,80,0.00,,---,0.00,VWS V14.01,2013-02-05 11:12:00,
2013-02-05 05:17:00,28.0,22.7,29.97,WSW,248,0.0,0.9,80,0.00,,---,0.00,VWS V14.01,2013-02-05 11:17:00,
2013-02-05 05:22:00,27.9,22.5,29.97,WSW,248,0.0,0.0,80,0.00,,---,0.00,VWS V14.01,2013-02-05 11:22:00,
2013-02-05 05:28:00,27.7,22.3,29.97,WSW,248,0.0,0.0,80,0.00,,---,0.00,VWS V14.01,2013-02-05 11:28:00,
2013-02-05 05:33:00,27.5,22.1,29.97,WSW,248,0.0,0.0,80,0.00,,---,0.00,VWS V14.01,2013-02-05 11:33:00,
2013-02-05 05:38:00,27.1,21.8,29.97,WSW,248,0.0,0.0,80,0.00,,---,0.00,VWS V14.01,2013-02-05 11:38:00,
2013-02-05 05:43:00,27.1,21.8,30.00,WSW,248,0.0,0.9,80,0.00,,---,0.00,VWS V14.01,2013-02-05 11:43:00,
2013-02-05 05:49:00,27.1,21.8,30.00,WSW,248,0.0,0.0,80,0.00,,---,0.00,VWS V14.01,2013-02-05 11:49:00,
2013-02-05 05:54:00,27.7,22.9,30.00,SSW,202,1.1,1.1,82,0.00,,---,0.00,VWS V14.01,2013-02-05 11:54:00,
2013-02-05 05:59:00,27.9,23.7,30.00,SW,225,0.0,1.1,84,0.00,,---,0.00,VWS V14.01,2013-02-05 11:59:00,
2013-02-05 06:04:00,28.0,24.4,30.00,WSW,248,2.0,2.0,86,0.00,,---,0.00,VWS V14.01,2013-02-05 12:04:00,
2013-02-05 06:10:00,28.2,24.6,30.00,WSW,248,1.6,1.6,86,0.00,,---,0.00,VWS V14.01,2013-02-05 12:10:00,
2013-02-05 06:16:00,28.4,25.0,30.00,South,180,1.6,1.6,87,0.00,,---,0.00,VWS V14.01,2013-02-05 12:16:00,
2013-02-05 06:21:00,28.6,25.2,30.00,NW,315,0.0,2.5,87,0.00,,---,0.00,VWS V14.01,2013-02-05 12:21:00,
2013-02-05 06:26:00,28.4,24.8,30.00,WNW,292,0.0,1.3,86,0.00,,---,0.00,VWS V14.01,2013-02-05 12:26:00,
2013-02-05 06:31:00,28.0,24.1,30.00,WNW,292,0.0,1.1,85,0.00,,---,0.00,VWS V14.01,2013-02-05 12:31:00,
2013-02-05 06:36:00,28.2,24.3,30.00,NW,315,1.1,2.2,85,0.00,,---,0.00,VWS V14.01,2013-02-05 12:36:00,
2013-02-05 06:41:00,28.4,24.8,30.00,WNW,292,2.0,2.2,86,0.00,,---,0.00,VWS V14.01,2013-02-05 12:41:00,
2013-02-05 06:47:00,28.4,24.8,30.03,NW,315,2.2,2.5,86,0.00,,---,0.00,VWS V14.01,2013-02-05 12:47:00,
2013-02-05 06:52:00,28.6,24.6,30.03,NW,315,1.3,1.6,85,0.00,,---,0.00,VWS V14.01,2013-02-05 12:52:00,
2013-02-05 06:57:00,28.6,24.6,30.03,NW,315,2.9,2.9,85,0.00,,---,0.00,VWS V14.01,2013-02-05 12:57:00,
2013-02-05 07:02:00,28.9,25.3,30.03,NW,315,3.4,4.3,86,0.00,,---,0.00,VWS V14.01,2013-02-05 13:02:00,
2013-02-05 07:07:00,28.9,25.3,30.03,NW,315,2.5,4.3,86,0.00,,---,0.00,VWS V14.01,2013-02-05 13:07:00,
2013-02-05 07:13:00,28.8,24.5,30.03,NW,315,0.0,2.9,84,0.00,,---,0.00,VWS V14.01,2013-02-05 13:13:00,
2013-02-05 07:18:00,28.6,24.1,30.03,NW,315,0.0,1.6,83,0.00,,---,0.00,VWS V14.01,2013-02-05 13:18:00,
2013-02-05 07:23:00,28.2,23.4,30.03,NW,315,0.0,0.0,82,0.00,,---,0.00,VWS V14.01,2013-02-05 13:23:00,
2013-02-05 07:29:00,27.9,23.1,30.03,NW,315,2.5,2.5,82,0.00,,---,0.00,VWS V14.01,2013-02-05 13:29:00,
2013-02-05 07:34:00,27.9,23.4,30.03,NNW,338,2.5,2.5,83,0.00,,---,0.00,VWS V14.01,2013-02-05 13:34:00,
2013-02-05 07:40:00,28.6,24.1,30.03,NNW,338,0.0,0.0,83,0.00,,---,0.00,VWS V14.01,2013-02-05 13:40:00,
2013-02-05 07:45:00,29.5,25.0,30.03,NNW,338,1.3,2.5,83,0.00,,---,0.00,VWS V14.01,2013-02-05 13:45:00,
2013-02-05 07:50:00,30.9,26.4,30.03,NNW,338,0.0,0.0,83,0.00,,---,0.00,VWS V14.01,2013-02-05 13:50:00,
2013-02-05 07:55:00,31.8,26.7,30.03,NNW,338,2.9,2.9,81,0.00,,---,0.00,VWS V14.01,2013-02-05 13:55:00,
2013-02-05 08:01:00,32.7,27.5,30.03,NNW,338,3.8,3.8,81,0.00,,---,0.00,VWS V14.01,2013-02-05 14:01:00,
2013-02-05 08:06:00,33.6,27.8,30.03,NW,315,0.0,1.1,79,0.00,,---,0.00,VWS V14.01,2013-02-05 14:06:00,
2013-02-05 08:12:00,34.7,28.2,30.03,WNW,292,1.3,2.5,77,0.00,,---,0.00,VWS V14.01,2013-02-05 14:12:00,
2013-02-05 08:17:00,35.6,28.1,30.03,NW,315,1.1,2.9,74,0.00,,---,0.00,VWS V14.01,2013-02-05 14:17:00,
2013-02-05 08:23:00,36.5,28.4,30.03,WNW,292,2.0,2.0,72,0.00,,---,0.00,VWS V14.01,2013-02-05 14:23:00,
2013-02-05 08:29:00,37.0,27.5,30.03,NW,315,0.9,3.6,68,0.00,,---,0.00,VWS V14.01,2013-02-05 14:29:00,
2013-02-05 08:34:00,37.9,28.0,30.03,NW,315,0.0,2.0,67,0.00,,---,0.00,VWS V14.01,2013-02-05 14:34:00,
2013-02-05 08:40:00,38.5,27.0,30.03,West,270,2.5,2.9,63,0.00,,---,0.00,VWS V14.01,2013-02-05 14:40:00,
2013-02-05 08:46:00,39.4,27.5,30.03,SW,225,3.4,3.4,62,0.00,,---,0.00,VWS V14.01,2013-02-05 14:46:00,
2013-02-05 08:51:00,40.5,28.5,30.03,WNW,292,2.5,2.5,62,0.00,,---,0.00,VWS V14.01,2013-02-05 14:51:00,
2013-02-05 08:56:00,41.5,28.3,30.03,WNW,292,3.1,3.4,59,0.00,,---,0.00,VWS V14.01,2013-02-05 14:56:00,
2013-02-05 09:01:00,42.6,29.3,30.03,NW,315,2.2,2.2,59,0.00,,---,0.00,VWS V14.01,2013-02-05 15:01:00,
2013-02-05 09:06:00,43.7,29.5,30.03,West,270,1.6,2.2,57,0.00,,---,0.00,VWS V14.01,2013-02-05 15:06:00,
2013-02-05 09:12:00,44.6,28.5,30.06,WNW,292,2.7,2.7,53,0.00,,---,0.00,VWS V14.01,2013-02-05 15:12:00,
2013-02-05 09:18:00,45.5,28.9,30.06,West,270,3.1,3.8,52,0.00,,---,0.00,VWS V14.01,2013-02-05 15:18:00,
2013-02-05 09:23:00,46.0,28.9,30.06,West,270,3.8,5.8,51,0.00,,---,0.00,VWS V14.01,2013-02-05 15:23:00,
2013-02-05 09:28:00,47.1,29.5,30.03,SW,225,3.8,3.8,50,0.00,,---,0.00,VWS V14.01,2013-02-05 15:28:00,
2013-02-05 09:33:00,48.2,29.5,30.03,West,270,3.8,4.9,48,0.00,,---,0.00,VWS V14.01,2013-02-05 15:33:00,
2013-02-05 09:38:00,49.1,29.8,30.03,WNW,292,4.9,5.8,47,0.00,,---,0.00,VWS V14.01,2013-02-05 15:38:00,
2013-02-05 09:44:00,51.1,31.6,30.03,SW,225,2.7,3.1,47,0.00,,---,0.00,VWS V14.01,2013-02-05 15:44:00,
2013-02-05 09:50:00,52.7,32.5,30.03,SW,225,3.6,3.8,46,0.00,,---,0.00,VWS V14.01,2013-02-05 15:50:00,
2013-02-05 09:55:00,53.8,32.4,30.03,SW,225,0.9,3.1,44,0.00,,---,0.00,VWS V14.01,2013-02-05 15:55:00,
2013-02-05 10:00:00,54.7,32.6,30.03,WSW,248,2.7,3.4,43,0.00,,---,0.00,VWS V14.01,2013-02-05 16:00:00,
2013-02-05 10:05:00,55.4,30.9,30.03,SW,225,7.8,8.1,39,0.00,,---,0.00,VWS V14.01,2013-02-05 16:05:00,
2013-02-05 10:11:00,56.3,31.0,30.03,West,270,9.8,10.7,38,0.00,,---,0.00,VWS V14.01,2013-02-05 16:11:00,
2013-02-05 10:16:00,56.8,31.5,30.03,West,270,6.0,6.0,38,0.00,,---,0.00,VWS V14.01,2013-02-05 16:16:00,
2013-02-05 10:22:00,57.9,31.8,30.03,WSW,248,5.4,5.4,37,0.00,,---,0.00,VWS V14.01,2013-02-05 16:22:00,
2013-02-05 10:27:00,58.6,31.8,30.03,NW,315,3.6,6.3,36,0.00,,---,0.00,VWS V14.01,2013-02-05 16:27:00,
2013-02-05 10:32:00,59.5,31.9,30.03,SW,225,4.9,4.9,35,0.00,,---,0.00,VWS V14.01,2013-02-05 16:32:00,
2013-02-05 10:37:00,60.4,32.7,30.03,West,270,5.6,7.6,35,0.00,,---,0.00,VWS V14.01,2013-02-05 16:37:00,
2013-02-05 10:43:00,60.6,32.1,30.03,WSW,248,6.3,8.5,34,0.00,,---,0.00,VWS V14.01,2013-02-05 16:43:00,
2013-02-05 10:49:00,61.7,32.3,30.03,NW,315,3.4,4.3,33,0.00,,---,0.00,VWS V14.01,2013-02-05 16:49:00,
2013-02-05 10:54:00,61.9,30.1,30.03,WNW,292,3.8,8.7,30,0.00,,---,0.00,VWS V14.01,2013-02-05 16:54:00,
2013-02-05 11:00:00,62.1,29.5,30.03,NNW,338,4.3,7.4,29,0.00,,---,0.00,VWS V14.01,2013-02-05 17:00:00,
2013-02-05 11:05:00,63.3,30.5,30.03,WNW,292,3.1,3.1,29,0.00,,---,0.00,VWS V14.01,2013-02-05 17:05:00,
2013-02-05 11:11:00,63.1,28.6,30.03,NNW,338,7.8,8.7,27,0.00,,---,0.00,VWS V14.01,2013-02-05 17:11:00,
2013-02-05 11:16:00,63.1,27.7,30.03,WSW,248,7.2,7.6,26,0.00,,---,0.00,VWS V14.01,2013-02-05 17:16:00,
2013-02-05 11:22:00,63.9,28.3,30.03,NW,315,4.9,5.8,26,0.00,,---,0.00,VWS V14.01,2013-02-05 17:22:00,
2013-02-05 11:28:00,63.7,28.2,30.03,NW,315,4.7,6.3,26,0.00,,---,0.00,VWS V14.01,2013-02-05 17:28:00,
2013-02-05 11:33:00,63.9,28.3,30.03,West,270,6.3,6.3,26,0.00,,---,0.00,VWS V14.01,2013-02-05 17:33:00,
2013-02-05 11:38:00,63.5,28.0,30.03,NW,315,2.9,6.5,26,0.00,,---,0.00,VWS V14.01,2013-02-05 17:38:00,
2013-02-05 11:43:00,64.2,27.7,30.06,NNW,338,5.8,8.7,25,0.00,,---,0.00,VWS V14.01,2013-02-05 17:43:00,
2013-02-05 11:49:00,64.0,27.5,30.06,NW,315,5.8,6.0,25,0.00,,---,0.00,VWS V14.01,2013-02-05 17:49:00,
2013-02-05 11:54:00,63.5,26.1,30.06,WNW,292,4.3,6.3,24,0.00,,---,0.00,VWS V14.01,2013-02-05 17:54:00,
2013-02-05 12:00:00,65.1,28.5,30.03,NW,315,2.7,4.3,25,0.00,,---,0.00,VWS V14.01,2013-02-05 18:00:00,
2013-02-05 12:05:00,64.8,28.1,30.03,NW,315,5.6,5.6,25,0.00,,---,0.00,VWS V14.01,2013-02-05 18:05:00,
2013-02-05 12:11:00,64.9,27.3,30.03,NNE,22,4.0,5.8,24,0.00,,---,0.00,VWS V14.01,2013-02-05 18:11:00,
2013-02-05 12:16:00,64.2,26.7,30.03,North,0,6.5,10.3,24,0.00,,---,0.00,VWS V14.01,2013-02-05 18:16:00,
2013-02-05 12:21:00,64.6,26.0,30.03,NW,315,4.0,8.1,23,0.00,,---,0.00,VWS V14.01,2013-02-05 18:21:00,
2013-02-05 12:27:00,64.4,25.8,30.03,NE,45,5.6,7.8,23,0.00,,---,0.00,VWS V14.01,2013-02-05 18:27:00,
2013-02-05 12:32:00,64.6,26.0,30.03,North,0,7.2,9.6,23,0.00,,---,0.00,VWS V14.01,2013-02-05 18:32:00,
2013-02-05 12:38:00,64.4,22.5,30.03,NNE,22,11.0,11.0,20,0.00,,---,0.00,VWS V14.01,2013-02-05 18:38:00,
2013-02-05 12:43:00,64.8,26.1,30.03,NNE,22,6.3,6.5,23,0.00,,---,0.00,VWS V14.01,2013-02-05 18:43:00,
2013-02-05 12:49:00,64.6,26.0,30.03,NNE,22,5.6,6.5,23,0.00,,---,0.00,VWS V14.01,2013-02-05 18:49:00,
2013-02-05 12:54:00,64.6,22.6,30.03,NNW,338,8.1,11.4,20,0.00,,---,0.00,VWS V14.01,2013-02-05 18:54:00,
2013-02-05 13:00:00,65.1,26.4,30.03,North,0,5.8,7.6,23,0.00,,---,0.00,VWS V14.01,2013-02-05 19:00:00,
2013-02-05 13:06:00,65.1,26.4,30.03,NE,45,6.5,8.5,23,0.00,,---,0.00,VWS V14.01,2013-02-05 19:06:00,
2013-02-05 13:11:00,65.3,23.2,30.03,NE,45,5.8,6.3,20,0.00,,---,0.00,VWS V14.01,2013-02-05 19:11:00,
2013-02-05 13:17:00,66.0,23.8,30.03,NE,45,3.8,6.3,20,0.00,,---,0.00,VWS V14.01,2013-02-05 19:17:00,
2013-02-05 13:22:00,66.2,17.2,30.03,NE,45,10.1,12.1,15,0.00,,---,0.00,VWS V14.01,2013-02-05 19:22:00,
2013-02-05 13:28:00,66.0,17.1,30.03,ENE,68,6.0,10.1,15,0.00,,---,0.00,VWS V14.01,2013-02-05 19:28:00,
2013-02-05 13:34:00,65.8,13.6,30.03,NE,45,11.2,11.2,13,0.00,,---,0.00,VWS V14.01,2013-02-05 19:34:00,
2013-02-05 13:39:00,65.8,13.6,30.03,NE,45,9.8,9.8,13,0.00,,---,0.00,VWS V14.01,2013-02-05 19:39:00,
2013-02-05 13:45:00,65.7,7.6,30.00,NE,45,9.6,12.1,10,0.00,,---,0.00,VWS V14.01,2013-02-05 19:45:00,
2013-02-05 13:51:00,66.2,20.1,30.00,NNE,22,5.6,6.3,17,0.00,,---,0.00,VWS V14.01,2013-02-05 19:51:00,
2013-02-05 13:56:00,66.2,17.2,30.00,NNE,22,8.1,8.1,15,0.00,,---,0.00,VWS V14.01,2013-02-05 19:56:00,
2013-02-05 14:02:00,67.1,17.9,30.00,North,0,3.1,4.9,15,0.00,,---,0.00,VWS V14.01,2013-02-05 20:02:00,
2013-02-05 14:07:00,66.9,0.8,30.00,NNE,22,7.8,7.8,7,0.00,,---,0.00,VWS V14.01,2013-02-05 20:07:00,
2013-02-05 14:13:00,66.9,8.6,30.03,NNE,22,10.1,10.1,10,0.00,,---,0.00,VWS V14.01,2013-02-05 20:13:00,
2013-02-05 14:19:00,66.9,8.6,30.03,NNE,22,8.5,9.6,10,0.00,,---,0.00,VWS V14.01,2013-02-05 20:19:00,
2013-02-05 14:24:00,67.1,1.0,30.03,NE,45,5.4,8.7,7,0.00,,---,0.00,VWS V14.01,2013-02-05 20:24:00,
2013-02-05 14:30:00,67.6,-5.7,30.03,North,0,3.1,6.9,5,0.00,,---,0.00,VWS V14.01,2013-02-05 20:30:00,
2013-02-05 14:36:00,68.5,-5.1,30.03,ENE,68,3.1,6.3,5,0.00,,---,0.00,VWS V14.01,2013-02-05 20:36:00,
2013-02-05 14:41:00,68.2,-5.3,30.03,NE,45,8.5,10.7,5,0.00,,---,0.00,VWS V14.01,2013-02-05 20:41:00,
2013-02-05 14:46:00,68.2,-5.3,30.03,NNW,338,2.0,6.3,5,0.00,,---,0.00,VWS V14.01,2013-02-05 20:46:00,
2013-02-05 14:52:00,68.0,-10.0,30.03,East,90,6.5,7.4,4,0.00,,---,0.00,VWS V14.01,2013-02-05 20:52:00,
2013-02-05 14:58:00,67.8,-10.1,30.03,ENE,68,4.9,6.0,4,0.00,,---,0.00,VWS V14.01,2013-02-05 20:58:00,
2013-02-05 15:03:00,68.0,-10.0,30.03,NNE,22,5.6,7.8,4,0.00,,---,0.00,VWS V14.01,2013-02-05 21:03:00,
2013-02-05 15:09:00,67.8,-10.1,30.03,NE,45,6.0,7.8,4,0.00,,---,0.00,VWS V14.01,2013-02-05 21:09:00,
2013-02-05 15:14:00,67.5,-10.4,30.03,NE,45,9.8,10.7,4,0.00,,---,0.00,VWS V14.01,2013-02-05 21:14:00,
2013-02-05 15:20:00,67.5,-10.4,30.03,ENE,68,8.7,8.7,4,0.00,,---,0.00,VWS V14.01,2013-02-05 21:20:00,
2013-02-05 15:26:00,67.5,-10.4,30.03,ENE,68,7.8,9.2,4,0.00,,---,0.00,VWS V14.01,2013-02-05 21:26:00,
2013-02-05 15:31:00,67.5,-10.4,30.06,ENE,68,1.1,3.6,4,0.00,,---,0.00,VWS V14.01,2013-02-05 21:31:00,
2013-02-05 15:36:00,67.5,-10.4,30.06,NE,45,6.7,6.7,4,0.00,,---,0.00,VWS V14.01,2013-02-05 21:36:00,
2013-02-05 15:41:00,68.0,-10.0,30.06,NE,45,3.6,3.8,4,0.00,,---,0.00,VWS V14.01,2013-02-05 21:41:00,
2013-02-05 15:47:00,67.6,-10.3,30.03,ENE,68,10.1,10.1,4,0.00,,---,0.00,VWS V14.01,2013-02-05 21:47:00,
2013-02-05 15:52:00,67.3,-10.5,30.03,East,90,2.7,7.8,4,0.00,,---,0.00,VWS V14.01,2013-02-05 21:52:00,
2013-02-05 15:58:00,66.9,-10.8,30.03,ENE,68,4.0,6.3,4,0.00,,---,0.00,VWS V14.01,2013-02-05 21:58:00,
2013-02-05 16:03:00,67.1,-10.6,30.03,ENE,68,2.5,4.7,4,0.00,,---,0.00,VWS V14.01,2013-02-05 22:03:00,
2013-02-05 16:09:00,67.6,-10.3,30.03,NE,45,3.1,8.1,4,0.00,,---,0.00,VWS V14.01,2013-02-05 22:09:00,
2013-02-05 16:15:00,66.9,-10.8,30.03,NE,45,4.9,6.5,4,0.00,,---,0.00,VWS V14.01,2013-02-05 22:15:00,
2013-02-05 16:20:00,67.1,-10.6,30.03,NE,45,5.4,5.4,4,0.00,,---,0.00,VWS V14.01,2013-02-05 22:20:00,
2013-02-05 16:26:00,66.7,-10.9,30.03,NE,45,3.6,4.3,4,0.00,,---,0.00,VWS V14.01,2013-02-05 22:26:00,
2013-02-05 16:31:00,66.4,-11.1,30.03,NE,45,6.5,6.5,4,0.00,,---,0.00,VWS V14.01,2013-02-05 22:31:00,
2013-02-05 16:37:00,66.0,-11.4,30.03,NE,45,8.1,8.1,4,0.00,,---,0.00,VWS V14.01,2013-02-05 22:37:00,
2013-02-05 16:43:00,66.0,-11.4,30.03,NE,45,0.9,2.2,4,0.00,,---,0.00,VWS V14.01,2013-02-05 22:43:00,
2013-02-05 16:48:00,65.7,-11.6,30.03,NNW,338,8.5,8.5,4,0.00,,---,0.00,VWS V14.01,2013-02-05 22:48:00,
2013-02-05 16:54:00,65.5,-11.8,30.03,NE,45,3.8,3.8,4,0.00,,---,0.00,VWS V14.01,2013-02-05 22:54:00,
2013-02-05 17:00:00,65.1,-12.0,30.06,NE,45,6.0,6.9,4,0.00,,---,0.00,VWS V14.01,2013-02-05 23:00:00,
2013-02-05 17:05:00,64.8,-12.3,30.06,ENE,68,3.4,4.0,4,0.00,,---,0.00,VWS V14.01,2013-02-05 23:05:00,
2013-02-05 17:11:00,64.2,-8.1,30.06,NE,45,3.8,4.7,5,0.00,,---,0.00,VWS V14.01,2013-02-05 23:11:00,
2013-02-05 17:16:00,63.9,-8.4,30.03,NE,45,2.7,4.0,5,0.00,,---,0.00,VWS V14.01,2013-02-05 23:16:00,
2013-02-05 17:22:00,63.5,-8.6,30.03,ENE,68,2.5,5.6,5,0.00,,---,0.00,VWS V14.01,2013-02-05 23:22:00,
2013-02-05 17:27:00,63.1,-8.9,30.03,ESE,112,3.6,4.3,5,0.00,,---,0.00,VWS V14.01,2013-02-05 23:27:00,
2013-02-05 17:33:00,62.6,-9.3,30.03,ENE,68,2.5,3.1,5,0.00,,---,0.00,VWS V14.01,2013-02-05 23:33:00,
2013-02-05 17:39:00,61.7,-9.9,30.03,NE,45,0.0,1.1,5,0.00,,---,0.00,VWS V14.01,2013-02-05 23:39:00,
2013-02-05 17:44:00,61.0,-10.4,30.03,ESE,112,2.5,2.7,5,0.00,,---,0.00,VWS V14.01,2013-02-05 23:44:00,
2013-02-05 17:50:00,60.3,-7.3,30.03,ENE,68,1.1,2.2,6,0.00,,---,0.00,VWS V14.01,2013-02-05 23:50:00,
2013-02-05 17:55:00,59.4,-4.8,30.03,ENE,68,0.9,2.0,7,0.00,,---,0.00,VWS V14.01,2013-02-05 23:55:00,
2013-02-05 18:01:00,58.5,-5.4,30.03,ENE,68,0.0,0.9,7,0.00,,---,0.00,VWS V14.01,2013-02-06 00:01:00,
2013-02-05 18:07:00,57.6,-6.1,30.03,ENE,68,0.0,0.0,7,0.00,,---,0.00,VWS V14.01,2013-02-06 00:07:00,
2013-02-05 18:12:00,56.3,0.4,30.03,ENE,68,0.0,0.0,10,0.00,,---,0.00,VWS V14.01,2013-02-06 00:12:00,
2013-02-05 18:18:00,55.2,5.2,30.03,ENE,68,0.0,0.0,13,0.00,,---,0.00,VWS V14.01,2013-02-06 00:18:00,
2013-02-05 18:23:00,54.5,7.8,30.03,ENE,68,0.0,0.0,15,0.00,,---,0.00,VWS V14.01,2013-02-06 00:23:00,
2013-02-05 18:29:00,54.3,11.7,30.03,ENE,68,0.0,0.0,18,0.00,,---,0.00,VWS V14.01,2013-02-06 00:29:00,
2013-02-05 18:35:00,53.6,11.1,30.03,ENE,68,0.0,0.0,18,0.00,,---,0.00,VWS V14.01,2013-02-06 00:35:00,
2013-02-05 18:40:00,52.7,16.0,30.03,ENE,68,0.0,0.0,23,0.00,,---,0.00,VWS V14.01,2013-02-06 00:40:00,
2013-02-05 18:46:00,51.8,18.0,30.03,ENE,68,0.0,0.0,26,0.00,,---,0.00,VWS V14.01,2013-02-06 00:46:00,
2013-02-05 18:51:00,51.1,17.4,30.03,ENE,68,0.0,0.0,26,0.00,,---,0.00,VWS V14.01,2013-02-06 00:51:00,
2013-02-05 18:56:00,50.9,18.1,30.03,NE,45,1.1,2.0,27,0.00,,---,0.00,VWS V14.01,2013-02-06 00:56:00,
2013-02-05 19:02:00,51.1,19.1,30.03,ENE,68,0.0,2.0,28,0.00,,---,0.00,VWS V14.01,2013-02-06 01:02:00,
2013-02-05 19:07:00,50.9,19.0,30.03,ENE,68,0.0,0.0,28,0.00,,---,0.00,VWS V14.01,2013-02-06 01:07:00,
2013-02-05 19:12:00,50.4,18.5,30.03,ENE,68,0.0,0.0,28,0.00,,---,0.00,VWS V14.01,2013-02-06 01:12:00,
2013-02-05 19:18:00,49.1,18.2,30.03,ENE,68,0.0,0.0,29,0.00,,---,0.00,VWS V14.01,2013-02-06 01:18:00,
2013-02-05 19:24:00,48.6,17.8,30.03,ENE,68,0.0,0.0,29,0.00,,---,0.00,VWS V14.01,2013-02-06 01:24:00,
2013-02-05 19:29:00,48.0,18.1,30.03,ENE,68,0.0,0.0,30,0.00,,---,0.00,VWS V14.01,2013-02-06 01:29:00,
2013-02-05 19:35:00,47.8,18.7,30.03,ENE,68,2.2,2.2,31,0.00,,---,0.00,VWS V14.01,2013-02-06 01:35:00,
2013-02-05 19:40:00,48.4,19.9,30.03,ENE,68,0.0,0.0,32,0.00,,---,0.00,VWS V14.01,2013-02-06 01:40:00,
2013-02-05 19:46:00,48.6,20.8,30.06,ENE,68,0.0,0.0,33,0.00,,---,0.00,VWS V14.01,2013-02-06 01:46:00,
2013-02-05 19:52:00,48.7,20.9,30.06,ENE,68,0.0,0.0,33,0.00,,---,0.00,VWS V14.01,2013-02-06 01:52:00,
2013-02-05 19:57:00,48.6,20.8,30.06,ENE,68,0.0,0.0,33,0.00,,---,0.00,VWS V14.01,2013-02-06 01:57:00,
2013-02-05 20:03:00,48.4,20.6,30.06,ENE,68,0.0,0.0,33,0.00,,---,0.00,VWS V14.01,2013-02-06 02:03:00,
2013-02-05 20:09:00,48.2,21.2,30.06,ENE,68,0.0,0.0,34,0.00,,---,0.00,VWS V14.01,2013-02-06 02:09:00,
2013-02-05 20:14:00,48.0,21.0,30.06,NE,45,0.0,0.0,34,0.00,,---,0.00,VWS V14.01,2013-02-06 02:14:00,
2013-02-05 20:20:00,48.0,21.7,30.06,ENE,68,0.0,0.0,35,0.00,,---,0.00,VWS V14.01,2013-02-06 02:20:00,
2013-02-05 20:25:00,48.0,22.4,30.06,ENE,68,0.0,0.0,36,0.00,,---,0.00,VWS V14.01,2013-02-06 02:25:00,
2013-02-05 20:31:00,48.4,22.7,30.06,NE,45,2.9,2.9,36,0.00,,---,0.00,VWS V14.01,2013-02-06 02:31:00,
2013-02-05 20:36:00,48.6,22.8,30.06,ENE,68,3.6,3.6,36,0.00,,---,0.00,VWS V14.01,2013-02-06 02:36:00,
2013-02-05 20:42:00,48.7,23.0,30.06,ENE,68,4.0,4.0,36,0.00,,---,0.00,VWS V14.01,2013-02-06 02:42:00,
2013-02-05 20:48:00,48.7,23.0,30.06,NE,45,3.8,5.4,36,0.00,,---,0.00,VWS V14.01,2013-02-06 02:48:00,
2013-02-05 20:53:00,48.9,23.2,30.06,ENE,68,4.0,4.9,36,0.00,,---,0.00,VWS V14.01,2013-02-06 02:53:00,
2013-02-05 20:59:00,49.1,24.0,30.09,East,90,6.0,6.0,37,0.00,,---,0.00,VWS V14.01,2013-02-06 02:59:00,
2013-02-05 21:04:00,49.3,24.1,30.09,NE,45,4.9,5.6,37,0.00,,---,0.00,VWS V14.01,2013-02-06 03:04:00,
2013-02-05 21:10:00,49.1,24.0,30.09,ENE,68,4.7,5.4,37,0.00,,---,0.00,VWS V14.01,2013-02-06 03:10:00,
2013-02-05 21:16:00,49.1,24.0,30.09,ENE,68,4.0,5.8,37,0.00,,---,0.00,VWS V14.01,2013-02-06 03:16:00,
2013-02-05 21:21:00,48.9,23.8,30.09,NE,45,5.6,6.9,37,0.00,,---,0.00,VWS V14.01,2013-02-06 03:21:00,
2013-02-05 21:26:00,48.7,23.6,30.09,East,90,4.3,4.3,37,0.00,,---,0.00,VWS V14.01,2013-02-06 03:26:00,
2013-02-05 21:31:00,48.7,23.6,30.09,East,90,4.0,5.6,37,0.00,,---,0.00,VWS V14.01,2013-02-06 03:31:00,
2013-02-05 21:37:00,48.7,23.6,30.09,ESE,112,4.3,6.0,37,0.00,,---,0.00,VWS V14.01,2013-02-06 03:37:00,
2013-02-05 21:42:00,48.7,23.6,30.09,East,90,4.0,5.8,37,0.00,,---,0.00,VWS V14.01,2013-02-06 03:42:00,
2013-02-05 21:48:00,48.6,24.1,30.09,East,90,2.9,3.8,38,0.00,,---,0.00,VWS V14.01,2013-02-06 03:48:00,
2013-02-05 21:54:00,48.2,23.8,30.09,ESE,112,4.0,5.6,38,0.00,,---,0.00,VWS V14.01,2013-02-06 03:54:00,
2013-02-05 21:59:00,48.2,23.8,30.09,ESE,112,3.4,4.3,38,0.00,,---,0.00,VWS V14.01,2013-02-06 03:59:00,
2013-02-05 22:05:00,47.8,24.1,30.09,ESE,112,3.1,4.3,39,0.00,,---,0.00,VWS V14.01,2013-02-06 04:05:00,
2013-02-05 22:10:00,47.8,24.1,30.09,ESE,112,4.3,5.6,39,0.00,,---,0.00,VWS V14.01,2013-02-06 04:10:00,
2013-02-05 22:16:00,47.7,23.9,30.12,East,90,2.7,3.6,39,0.00,,---,0.00,VWS V14.01,2013-02-06 04:16:00,
2013-02-05 22:22:00,47.5,24.4,30.12,ESE,112,2.7,3.6,40,0.00,,---,0.00,VWS V14.01,2013-02-06 04:22:00,
2013-02-05 22:27:00,47.3,24.2,30.12,East,90,3.6,3.6,40,0.00,,---,0.00,VWS V14.01,2013-02-06 04:27:00,
2013-02-05 22:33:00,47.1,24.1,30.12,ESE,112,2.9,3.6,40,0.00,,---,0.00,VWS V14.01,2013-02-06 04:33:00,
2013-02-05 22:38:00,46.8,23.7,30.12,ESE,112,2.5,2.5,40,0.00,,---,0.00,VWS V14.01,2013-02-06 04:38:00,
2013-02-05 22:43:00,46.6,24.2,30.06,ESE,112,3.1,3.4,41,0.00,,---,0.00,VWS V14.01,2013-02-06 04:43:00,
2013-02-05 22:48:00,46.8,24.3,30.06,SE,135,3.8,3.8,41,0.00,,---,0.00,VWS V14.01,2013-02-06 04:48:00,
2013-02-05 22:53:00,46.8,24.3,30.06,SE,135,3.8,3.8,41,0.00,,---,0.00,VWS V14.01,2013-02-06 04:53:00,
2013-02-05 22:58:00,46.6,24.2,30.06,SE,135,2.7,3.8,41,0.00,,---,0.00,VWS V14.01,2013-02-06 04:58:00,
2013-02-05 23:00:00,46.4,24.0,30.06,SE,135,1.6,4.0,41,0.00,,---,0.00,VWS V14.01,2013-02-06 05:00:00,
2013-02-05 23:01:00,46.4,24.0,30.06,SSE,158,2.9,2.9,41,0.00,,---,0.00,VWS V14.01,2013-02-06 05:01:00,
2013-02-05 23:02:00,46.4,24.6,30.06,SE,135,2.9,3.4,42,0.00,,---,0.00,VWS V14.01,2013-02-06 05:02:00,
2013-02-05 23:07:00,46.2,24.4,30.06,SE,135,2.7,4.5,42,0.00,,---,0.00,VWS V14.01,2013-02-06 05:07:00,
2013-02-05 23:10:00,46.2,24.4,30.06,SE,135,2.7,3.1,42,0.00,,---,0.00,VWS V14.01,2013-02-06 05:10:00,
2013-02-05 23:16:00,46.2,25.0,30.09,SSE,158,2.5,3.4,43,0.00,,---,0.00,VWS V14.01,2013-02-06 05:16:00,
2013-02-05 23:21:00,46.0,24.8,30.09,SE,135,3.4,3.4,43,0.00,,---,0.00,VWS V14.01,2013-02-06 05:21:00,
2013-02-05 23:26:00,46.0,24.8,30.09,ESE,112,6.0,6.0,43,0.00,,---,0.00,VWS V14.01,2013-02-06 05:26:00,
2013-02-05 23:31:00,46.0,24.8,30.09,SE,135,4.0,4.5,43,0.00,,---,0.00,VWS V14.01,2013-02-06 05:31:00,
2013-02-05 23:37:00,46.0,25.4,30.09,SE,135,2.9,3.4,44,0.00,,---,0.00,VWS V14.01,2013-02-06 05:37:00,
2013-02-05 23:42:00,46.0,25.4,30.09,SSE,158,3.4,4.3,44,0.00,,---,0.00,VWS V14.01,2013-02-06 05:42:00,
2013-02-05 23:47:00,46.0,25.4,30.09,SE,135,4.0,4.7,44,0.00,,---,0.00,VWS V14.01,2013-02-06 05:47:00,
2013-02-05 23:52:00,46.0,25.4,30.09,SE,135,3.1,5.4,44,0.00,,---,0.00,VWS V14.01,2013-02-06 05:52:00,
2013-02-05 23:58:00,45.9,25.7,30.09,SE,135,3.6,5.6,45,0.00,,---,0.00,VWS V14.01,2013-02-06 05:58:00,